createdAt,value
2022-07-27T00:01:18.334Z,9.08
2022-07-27T00:12:28.506Z,9.60
2022-07-27T00:15:40.985Z,10.48
2022-07-27T00:22:33.234Z,12.48
2022-07-27T00:25:45.148Z,9.58
2022-07-27T00:28:57.116Z,12.45
2022-07-27T00:32:12.592Z,8.53
2022-07-27T00:35:23.367Z,8.93
2022-07-27T00:38:35.167Z,7.55
2022-07-27T00:41:46.903Z,10.55
2022-07-27T00:44:58.937Z,13.95
2022-07-27T00:48:12.163Z,6.73
2022-07-27T00:51:25.968Z,6.50
2022-07-27T00:54:37.773Z,7.63
2022-07-27T00:57:58.525Z,9.45
2022-07-27T01:01:04.276Z,5.73
2022-07-27T01:04:15.930Z,6.70
2022-07-27T01:07:28.297Z,7.93
2022-07-27T01:10:41.764Z,7.60
2022-07-27T01:13:53.980Z,8.60
2022-07-27T01:17:05.824Z,9.55
2022-07-27T01:20:18.943Z,8.35
2022-07-27T01:23:32.568Z,8.10
2022-07-27T01:26:45.417Z,9.23
2022-07-27T01:29:58.094Z,7.48
2022-07-27T01:33:13.258Z,8.68
2022-07-27T01:36:25.329Z,12.53
2022-07-27T01:39:41.747Z,7.28
2022-07-27T01:42:56.957Z,5.15
2022-07-27T01:46:09.290Z,7.13
2022-07-27T01:49:21.108Z,9.23
2022-07-27T01:52:33.132Z,5.80
2022-07-27T01:55:45.156Z,6.03
2022-07-27T01:58:56.886Z,5.88
2022-07-27T02:02:08.547Z,13.53
2022-07-27T02:05:20.817Z,7.38
2022-07-27T02:08:32.864Z,8.75
2022-07-27T02:11:59.185Z,9.10
2022-07-27T02:15:15.780Z,7.73
2022-07-27T02:18:35.807Z,8.68
2022-07-27T02:21:42.172Z,7.70
2022-07-27T02:24:54.019Z,8.00
2022-07-27T02:28:05.761Z,7.73
2022-07-27T02:31:17.310Z,7.65
2022-07-27T02:34:29.100Z,9.83
2022-07-27T02:37:40.951Z,10.65
2022-07-27T02:40:52.919Z,8.65
2022-07-27T02:44:07.687Z,9.70
2022-07-27T02:47:19.790Z,8.40
2022-07-27T02:50:31.898Z,8.43
2022-07-27T02:53:43.739Z,7.35
2022-07-27T02:56:56.276Z,9.60
2022-07-27T03:00:08.696Z,9.73
2022-07-27T03:03:23.388Z,10.53
2022-07-27T03:06:37.345Z,9.68
2022-07-27T03:09:52.492Z,10.13
2022-07-27T03:13:03.227Z,8.88
2022-07-27T03:16:15.315Z,12.10
2022-07-27T03:19:30.298Z,8.68
2022-07-27T03:22:42.518Z,9.63
2022-07-27T03:25:54.277Z,9.03
2022-07-27T03:29:06.144Z,8.88
2022-07-27T03:32:18.046Z,7.85
2022-07-27T03:35:30.472Z,8.48
2022-07-27T03:38:42.563Z,10.40
2022-07-27T03:41:54.226Z,6.78
2022-07-27T03:45:05.942Z,10.58
2022-07-27T03:48:17.643Z,10.03
2022-07-27T03:51:29.170Z,18.55
2022-07-27T03:54:41.035Z,17.50
2022-07-27T03:57:52.783Z,12.20
2022-07-27T04:01:04.551Z,7.93
2022-07-27T04:04:16.516Z,9.15
2022-07-27T04:07:28.100Z,9.88
2022-07-27T04:10:39.778Z,14.68
2022-07-27T04:13:54.423Z,12.30
2022-07-27T04:17:09.433Z,13.20
2022-07-27T04:20:21.250Z,10.28
2022-07-27T04:23:37.940Z,11.48
2022-07-27T04:26:46.937Z,10.10
2022-07-27T04:29:58.509Z,11.03
2022-07-27T04:33:10.330Z,11.45
2022-07-27T04:36:22.020Z,11.78
2022-07-27T04:39:33.753Z,7.15
2022-07-27T04:42:49.259Z,10.45
2022-07-27T04:45:59.375Z,10.58
2022-07-27T04:49:11.323Z,9.45
2022-07-27T04:52:26.449Z,13.55
2022-07-27T04:55:38.116Z,7.93
2022-07-27T04:58:49.819Z,8.23
2022-07-27T05:02:01.426Z,9.90
2022-07-27T05:05:14.612Z,13.40
2022-07-27T05:08:26.884Z,15.05
2022-07-27T05:11:38.690Z,10.73
2022-07-27T05:14:50.262Z,14.10
2022-07-27T05:18:02.023Z,13.68
2022-07-27T05:21:13.941Z,14.73
2022-07-27T05:24:25.620Z,14.93
2022-07-27T05:27:54.224Z,13.20
2022-07-27T05:30:52.518Z,14.65
2022-07-27T05:34:04.377Z,14.30
2022-07-27T05:37:16.240Z,13.88
2022-07-27T05:40:28.408Z,12.65
2022-07-27T05:43:40.204Z,18.08
2022-07-27T05:46:51.908Z,25.85
2022-07-27T05:50:03.458Z,33.65
2022-07-27T05:53:15.479Z,15.98
2022-07-27T05:56:27.591Z,15.63
2022-07-27T05:59:39.756Z,22.28
2022-07-27T06:02:51.912Z,18.30
2022-07-27T06:06:21.345Z,16.43
2022-07-27T06:09:33.069Z,18.68
2022-07-27T06:12:48.086Z,22.58
2022-07-27T06:16:00.980Z,18.05
2022-07-27T06:19:13.078Z,16.50
2022-07-27T06:22:25.169Z,20.75
2022-07-27T06:25:40.451Z,27.30
2022-07-27T06:28:53.076Z,16.43
2022-07-27T06:32:04.878Z,25.10
2022-07-27T06:35:17.857Z,18.60
2022-07-27T06:38:31.379Z,17.85
2022-07-27T06:41:43.185Z,15.80
2022-07-27T06:44:56.974Z,16.50
2022-07-27T06:48:09.243Z,18.65
2022-07-27T06:51:20.987Z,18.43
2022-07-27T07:01:12.144Z,20.10
2022-07-27T07:04:25.286Z,19.03
2022-07-27T07:07:37.584Z,17.50
2022-07-27T07:10:51.083Z,21.18
2022-07-27T07:14:02.993Z,23.53
2022-07-27T07:17:14.671Z,14.63
2022-07-27T07:20:26.978Z,14.63
2022-07-27T07:23:38.873Z,28.28
2022-07-27T07:26:50.456Z,15.98
2022-07-27T07:30:03.194Z,17.55
2022-07-27T07:33:15.000Z,20.45
2022-07-27T07:36:27.003Z,16.10
2022-07-27T07:39:38.755Z,14.90
2022-07-27T07:43:02.613Z,22.05
2022-07-27T07:46:14.870Z,17.68
2022-07-27T07:49:39.259Z,24.75
2022-07-27T07:52:40.792Z,14.58
2022-07-27T07:55:52.618Z,22.43
2022-07-27T07:59:05.165Z,19.30
2022-07-27T08:02:16.957Z,17.30
2022-07-27T08:05:29.809Z,19.53
2022-07-27T08:08:41.909Z,14.80
2022-07-27T08:11:53.586Z,18.10
2022-07-27T08:15:05.276Z,19.25
2022-07-27T08:18:17.614Z,19.15
2022-07-27T08:21:31.629Z,19.70
2022-07-27T08:24:42.972Z,15.95
2022-07-27T08:27:55.487Z,16.93
2022-07-27T08:31:12.175Z,15.03
2022-07-27T08:34:22.251Z,16.85
2022-07-27T08:37:34.149Z,11.88
2022-07-27T08:40:47.573Z,15.30
2022-07-27T08:44:02.434Z,15.28
2022-07-27T08:47:16.874Z,18.33
2022-07-27T08:50:30.740Z,11.58
2022-07-27T08:53:53.154Z,12.48
2022-07-27T08:56:57.367Z,10.55
2022-07-27T09:00:12.551Z,11.90
2022-07-27T09:03:27.484Z,17.40
2022-07-27T09:06:54.434Z,10.13
2022-07-27T09:13:29.394Z,12.38
2022-07-27T09:17:28.883Z,11.13
2022-07-27T09:20:06.334Z,11.38
2022-07-27T09:23:26.047Z,11.83
2022-07-27T09:26:38.569Z,9.70
2022-07-27T09:29:50.341Z,12.53
2022-07-27T09:33:06.872Z,8.90
2022-07-27T09:36:19.764Z,10.70
2022-07-27T09:39:33.185Z,14.88
2022-07-27T09:45:59.056Z,16.85
2022-07-27T09:49:12.311Z,22.35
2022-07-27T09:52:33.472Z,11.30
2022-07-27T09:55:45.881Z,13.75
2022-07-27T09:59:00.045Z,12.55
2022-07-27T10:02:13.204Z,10.85
2022-07-27T10:05:26.067Z,11.90
2022-07-27T10:08:39.015Z,12.13
2022-07-27T10:11:51.781Z,11.53
2022-07-27T10:15:03.488Z,15.33
2022-07-27T10:18:20.164Z,15.15
2022-07-27T10:21:32.799Z,10.00
2022-07-27T10:24:51.224Z,12.40
2022-07-27T10:28:18.958Z,10.43
2022-07-27T10:31:33.947Z,10.33
2022-07-27T10:34:48.168Z,15.15
2022-07-27T10:38:21.760Z,10.03
2022-07-27T11:20:41.856Z,10.95
2022-07-27T11:32:50.806Z,10.00
2022-07-27T11:36:08.034Z,8.88
2022-07-27T11:42:48.917Z,12.65
2022-07-27T11:46:00.748Z,6.00
2022-07-27T11:49:16.218Z,8.13
2022-07-27T11:52:27.915Z,10.63
2022-07-27T11:55:39.744Z,9.78
2022-07-27T11:59:17.596Z,8.20
2022-07-27T12:02:29.754Z,9.73
2022-07-27T12:05:41.633Z,12.98
2022-07-27T12:08:53.496Z,9.63
2022-07-27T12:12:10.080Z,5.85
2022-07-27T12:18:49.898Z,9.25
2022-07-27T12:22:02.495Z,6.55
2022-07-27T12:25:29.963Z,7.80
2022-07-27T12:28:42.450Z,9.95
2022-07-27T12:31:58.697Z,11.58
2022-07-27T12:35:32.813Z,5.65
2022-07-27T12:38:48.742Z,6.20
2022-07-27T12:42:12.761Z,9.58
2022-07-27T12:45:27.751Z,8.20
2022-07-27T12:48:45.767Z,9.53
2022-07-27T12:51:57.960Z,8.25
2022-07-27T12:55:15.532Z,7.43
2022-07-27T12:58:26.017Z,11.23
2022-07-27T13:01:38.226Z,11.13
2022-07-27T13:04:51.373Z,11.40
2022-07-27T13:08:04.992Z,7.18
2022-07-27T13:11:17.163Z,11.00
2022-07-27T13:14:29.378Z,6.50
2022-07-27T13:17:42.224Z,8.88
2022-07-27T13:20:54.077Z,11.40
2022-07-27T13:24:07.158Z,12.30
2022-07-27T13:27:18.961Z,11.85
2022-07-27T13:30:30.823Z,10.53
2022-07-27T13:33:42.659Z,8.85
2022-07-27T13:36:54.492Z,6.93
2022-07-27T13:40:06.706Z,9.10
2022-07-27T13:43:19.574Z,10.25
2022-07-27T13:46:31.832Z,8.90
2022-07-27T13:49:43.839Z,8.90
2022-07-27T13:52:56.144Z,7.20
2022-07-27T13:56:08.061Z,9.80
2022-07-27T13:59:20.254Z,10.50
2022-07-27T14:02:32.330Z,8.25
2022-07-27T14:05:49.202Z,8.00
2022-07-27T14:08:58.464Z,22.55
2022-07-27T14:12:13.773Z,21.80
2022-07-27T14:15:25.837Z,20.08
2022-07-27T14:18:38.191Z,17.75
2022-07-27T14:21:50.096Z,10.80
2022-07-27T14:25:01.752Z,9.45
2022-07-27T14:28:13.735Z,15.28
2022-07-27T14:31:25.523Z,8.85
2022-07-27T14:34:37.638Z,14.78
2022-07-27T14:37:49.304Z,9.60
2022-07-27T14:41:01.940Z,10.30
2022-07-27T14:44:14.185Z,14.30
2022-07-27T14:47:28.052Z,11.93
2022-07-27T14:50:39.818Z,7.40
2022-07-27T14:53:51.832Z,12.70
2022-07-27T14:57:06.410Z,9.08
2022-07-27T15:00:22.103Z,8.03
2022-07-27T15:03:33.768Z,6.57
2022-07-27T15:06:57.316Z,9.38
2022-07-27T15:19:39.307Z,13.98
2022-07-27T15:31:26.245Z,10.13
2022-07-27T15:43:40.332Z,13.68
2022-07-27T16:23:01.872Z,14.15
2022-07-27T16:29:21.321Z,13.53
2022-07-27T16:35:41.062Z,22.85
2022-07-27T16:38:57.210Z,12.53
2022-07-27T16:42:12.563Z,11.08
2022-07-27T16:45:24.148Z,7.45
2022-07-27T16:48:41.801Z,12.10
2022-07-27T16:51:57.129Z,16.78
2022-07-27T16:55:13.073Z,17.20
2022-07-27T16:58:25.724Z,11.98
2022-07-27T17:01:37.681Z,9.08
2022-07-27T17:04:49.563Z,8.93
2022-07-27T17:08:01.311Z,13.23
2022-07-27T17:11:14.357Z,13.20
2022-07-27T17:14:26.410Z,8.95
2022-07-27T17:17:38.741Z,11.95
2022-07-27T17:20:50.566Z,14.60
2022-07-27T17:24:04.598Z,16.23
2022-07-27T17:27:16.558Z,43.45
2022-07-27T17:30:28.465Z,18.93
2022-07-27T17:33:40.777Z,12.35
2022-07-27T17:36:53.374Z,9.28
2022-07-27T17:40:05.014Z,9.83
2022-07-27T17:43:17.226Z,9.85
2022-07-27T17:46:32.351Z,13.23
2022-07-27T17:49:46.006Z,10.90
2022-07-27T17:52:59.513Z,21.08
2022-07-27T17:59:40.093Z,12.75
2022-07-27T18:02:52.509Z,12.48
2022-07-27T18:06:07.007Z,17.58
2022-07-27T18:09:19.204Z,20.58
2022-07-27T18:12:35.731Z,11.05
2022-07-27T18:15:58.110Z,12.53
2022-07-27T18:19:14.454Z,21.70
2022-07-27T18:22:33.096Z,13.93
2022-07-27T18:25:45.000Z,13.83
2022-07-27T18:32:04.188Z,17.83
2022-07-27T18:35:18.381Z,5.55
2022-07-27T19:21:04.787Z,9.13
2022-07-27T19:31:24.941Z,18.65
2022-07-27T19:34:36.990Z,15.95
2022-07-27T20:25:20.997Z,7.45
2022-07-27T21:56:50.580Z,3.80
2022-07-27T22:06:08.581Z,5.63
2022-07-27T23:09:05.613Z,5.75
2022-07-27T23:18:19.578Z,8.03
2022-07-27T23:21:31.343Z,8.18
2022-07-27T23:24:44.355Z,6.43
2022-07-27T23:27:57.106Z,5.30
2022-07-27T23:31:08.945Z,6.05
2022-07-27T23:34:20.961Z,6.70
2022-07-27T23:37:33.192Z,5.80
2022-07-27T23:40:44.969Z,9.75
2022-07-27T23:43:57.042Z,3.83
2022-07-27T23:47:08.994Z,6.00
2022-07-27T23:50:22.972Z,5.40
2022-07-27T23:53:34.773Z,5.73
2022-07-27T23:56:46.431Z,12.00
2022-07-27T23:59:58.323Z,11.05
